Aeroporto :
LOGIN :

Iscrizione | Disclaimer

   EN    FR    IT 

 










Sommario :    VFR   VFR Marginale   IFR   IFR Intensivo   IFR Molto Intensivo
Visibilità : 
Base nubi : 
>= 8 km
>= 3000ft
5 / 8 km
1000 / 3000 ft
1500m / 5 km
500 / 1000 ft
800 / 1500m
200 / 500 ft
< 800m
< 200 ft
Simboli :   Temporali  Nebbia  Neve Forte  Precipitazioni Forti  Vento > 20 kt
SIGMETs :   Varie  Temporali  Ghiacco  Turbolenza  Onda orograficha  Ceneri Vulcaniche






- Altitudine del aeroporto : 44 ft
- Codice IATA : SOU


EGHI - Southampton

ULTIMO METAR :
  • 171750Z VRB02KT 9999 FEW030 05/03 Q1018

METARs OBSOLETI :
  • 171720Z VRB02KT 9999 VCSH FEW025CB 05/03 Q1017
  • 171650Z 27010KT 220V300 8000 VCSH BKN020CB 06/03 Q1018
  • 171620Z VRB03KT 9999 SCT025TCU 07/02 Q1017
  • 171550Z 25005KT 220V280 9999 FEW025TCU 07/02 Q1017
  • 171520Z 26007KT 230V290 9999 FEW025 08/02 Q1016

TAF TAF EGHI
Valido dal 17 a 18 ore il 17 a 23 ore UTC


171707Z 1718/1723 27009KT 9999 FEW010 SCT025
TEMPO 1718/1723 6000 SHRA
ATIS : +44 23 8062 7103



MetMap, La meteo Aeronautica in un colpo d'occhio ! - Copyright ORBIFLY Dicembre 2007 - Disclaimer

ORBIFLY MET'MAP TEAM :

Programmazione e sviluppo : Alexandra Zaïnal
Concezione : Baudouin d'Aumeries
Aiuto per la programmazione : Marc-Olivier Méhu
Supporto tecnico e logistico : Manuel Goepfert
Aiuto per la traduzione : Arnaldo La Scala

Contatto : metmap@orbifly.com




FONTI E CREDITI :

   NOAA